Time;durP1;ratioP1;P1;durP2;ratioP2;P2;SDS_P1;SDS_P2;PMS_P1;PMS_P2;Temp;Humidity;BMP_temperature;BMP_pressure;BME280_temperature;BME280_humidity;BME280_pressure;Samples;Min_cycle;Max_cycle;Signal;HPM_P1;HPM_P2
2023/08/05 00:01:24;;;;;;;4.47;2.17;;;15.90;99.90;;;;;;5064358;28;20556;-52
2023/08/05 00:03:49;;;;;;;8.43;2.92;;;15.90;99.90;;;;;;5073683;28;20028;-53
2023/08/05 00:06:15;;;;;;;2.70;2.33;;;16.00;99.90;;;;;;5073586;28;20052;-55
2023/08/05 00:08:40;;;;;;;3.05;2.40;;;16.00;99.90;;;;;;5068215;28;20047;-56
2023/08/05 00:11:12;;;;;;;2.30;2.10;;;16.00;99.90;;;;;;5076373;27;1277436;-55
2023/08/05 00:13:38;;;;;;;4.05;2.22;;;16.10;99.90;;;;;;5090176;28;20028;-54
2023/08/05 00:16:07;;;;;;;2.40;1.95;;;16.10;99.90;;;;;;5069146;28;20472;-55
2023/08/05 00:18:33;;;;;;;3.95;2.88;;;16.10;99.90;;;;;;5090151;28;20037;-55
2023/08/05 00:20:58;;;;;;;4.32;2.60;;;16.10;99.90;;;;;;5089941;28;20369;-56
2023/08/05 00:23:24;;;;;;;3.08;2.50;;;16.10;99.90;;;;;;5090005;28;20465;-56
2023/08/05 00:25:50;;;;;;;5.57;2.40;;;16.10;99.90;;;;;;5070040;28;20031;-55
2023/08/05 00:28:15;;;;;;;6.13;3.25;;;16.20;99.90;;;;;;5069003;28;20047;-55
2023/08/05 00:30:41;;;;;;;4.10;3.20;;;16.20;99.90;;;;;;5068509;28;20070;-54
2023/08/05 00:33:06;;;;;;;10.52;3.22;;;16.20;99.90;;;;;;5069660;28;20039;-53
2023/08/05 00:35:32;;;;;;;6.13;2.92;;;16.30;99.90;;;;;;5069859;28;20030;-54
2023/08/05 00:37:58;;;;;;;3.50;2.58;;;16.30;99.90;;;;;;5059993;28;20029;-49
2023/08/05 00:40:23;;;;;;;4.63;2.92;;;16.30;99.90;;;;;;5064768;28;20040;-57
2023/08/05 00:42:49;;;;;;;4.68;3.08;;;16.30;99.90;;;;;;5051523;28;20074;-56
2023/08/05 00:45:15;;;;;;;5.53;3.33;;;16.40;99.90;;;;;;5068812;28;20033;-51
2023/08/05 00:47:41;;;;;;;4.97;3.28;;;16.40;99.90;;;;;;5069321;28;20417;-54
2023/08/05 00:50:08;;;;;;;4.93;3.55;;;16.40;99.90;;;;;;5068509;28;20032;-56
2023/08/05 00:52:34;;;;;;;3.50;2.00;;;16.40;99.90;;;;;;5068190;28;20028;-49
2023/08/05 00:54:59;;;;;;;4.53;2.97;;;16.40;99.90;;;;;;5069261;28;20078;-47
2023/08/05 00:57:25;;;;;;;4.57;3.10;;;16.40;99.90;;;;;;5069196;28;20112;-44
2023/08/05 00:59:51;;;;;;;3.10;2.75;;;16.40;99.90;;;;;;5069088;28;20033;-42
2023/08/05 01:02:16;;;;;;;3.97;2.35;;;16.40;99.90;;;;;;5068116;28;20029;-45
2023/08/05 01:04:42;;;;;;;3.55;2.63;;;16.50;99.90;;;;;;5067767;28;20071;-55
2023/08/05 01:07:10;;;;;;;4.95;2.83;;;16.40;99.90;;;;;;5067724;28;20032;-45
2023/08/05 01:09:36;;;;;;;;;;;16.40;99.90;;;;;;5069436;28;20032;-44
2023/08/05 01:12:02;;;;;;;4.85;2.80;;;16.50;99.90;;;;;;5067830;28;19927;-45
2023/08/05 01:14:28;;;;;;;3.80;2.88;;;16.50;99.90;;;;;;5067505;28;20017;-46
2023/08/05 01:16:54;;;;;;;3.53;2.30;;;16.50;99.90;;;;;;5067704;28;20503;-44
2023/08/05 01:19:21;;;;;;;3.70;2.33;;;16.50;99.90;;;;;;5068090;28;20115;-43
2023/08/05 01:22:13;;;;;;;6.18;3.08;;;16.50;99.90;;;;;;5059718;28;20505;-46
2023/08/05 01:24:52;;;;;;;3.83;2.25;;;16.50;99.90;;;;;;4989133;28;20037;-45
2023/08/05 01:27:18;;;;;;;4.70;2.60;;;16.50;99.90;;;;;;5025167;28;20086;-46
2023/08/05 01:29:44;;;;;;;3.65;2.70;;;16.50;99.90;;;;;;5054511;28;20136;-45
2023/08/05 01:32:11;;;;;;;4.07;2.67;;;16.50;99.90;;;;;;5036222;28;20108;-47
2023/08/05 01:34:38;;;;;;;3.20;2.50;;;16.50;99.90;;;;;;5055257;28;20055;-55
2023/08/05 01:37:03;;;;;;;2.85;2.25;;;16.50;99.90;;;;;;5053333;28;20016;-42
2023/08/05 01:39:29;;;;;;;4.05;2.90;;;16.50;99.90;;;;;;5055173;28;20032;-44
2023/08/05 01:41:55;;;;;;;5.07;2.47;;;16.50;99.90;;;;;;5055147;28;20033;-44
2023/08/05 01:44:22;;;;;;;4.72;3.47;;;16.50;99.90;;;;;;5054033;28;20082;-40
2023/08/05 01:46:47;;;;;;;2.20;2.00;;;16.50;99.90;;;;;;5035990;28;20036;-41
2023/08/05 01:49:13;;;;;;;4.80;3.38;;;16.40;99.90;;;;;;5054867;28;20029;-45
2023/08/05 01:51:38;;;;;;;2.58;2.33;;;16.40;99.90;;;;;;5054134;28;20366;-42
2023/08/05 01:54:04;;;;;;;5.25;2.80;;;16.40;99.90;;;;;;5054812;28;20025;-41
2023/08/05 01:56:30;;;;;;;4.47;3.10;;;16.30;99.90;;;;;;5053342;28;20025;-43
2023/08/05 01:58:56;;;;;;;3.63;2.38;;;16.20;99.90;;;;;;5053847;28;20025;-46
2023/08/05 02:01:21;;;;;;;5.18;3.65;;;16.30;99.90;;;;;;5054582;28;20384;-43
2023/08/05 02:03:47;;;;;;;5.05;3.08;;;16.20;99.90;;;;;;5036005;28;20025;-43
2023/08/05 02:06:14;;;;;;;4.40;3.10;;;16.20;99.90;;;;;;5054661;28;20062;-44
2023/08/05 02:08:39;;;;;;;6.47;2.65;;;16.20;99.90;;;;;;5053877;28;20025;-44
2023/08/05 02:11:05;;;;;;;3.42;2.55;;;16.20;99.90;;;;;;5052463;28;20106;-44
2023/08/05 02:13:31;;;;;;;5.03;3.03;;;16.30;99.90;;;;;;5051764;28;20025;-43
2023/08/05 02:15:56;;;;;;;3.28;2.72;;;16.20;99.90;;;;;;5054475;28;20484;-46
2023/08/05 02:18:22;;;;;;;4.80;2.95;;;16.20;99.90;;;;;;5052644;28;20025;-43
2023/08/05 02:20:48;;;;;;;2.92;2.38;;;16.20;99.90;;;;;;5054370;28;20444;-43
2023/08/05 02:23:13;;;;;;;3.55;2.65;;;16.30;99.90;;;;;;5052724;28;20448;-44
2023/08/05 02:25:39;;;;;;;3.75;2.30;;;16.30;99.90;;;;;;5054431;28;20470;-44
2023/08/05 02:28:04;;;;;;;4.43;3.15;;;16.30;99.90;;;;;;5053310;28;20074;-44
2023/08/05 02:30:30;;;;;;;3.85;2.47;;;16.30;99.90;;;;;;5054148;28;20033;-40
2023/08/05 02:32:56;;;;;;;2.88;2.30;;;16.30;99.90;;;;;;5050979;28;20474;-49
2023/08/05 02:35:21;;;;;;;4.38;3.03;;;16.30;99.90;;;;;;5052172;28;20155;-43
2023/08/05 02:37:47;;;;;;;6.50;3.20;;;16.30;99.90;;;;;;5053114;28;20397;-45
2023/08/05 02:40:13;;;;;;;3.95;2.78;;;16.30;99.90;;;;;;5052943;28;20036;-43
2023/08/05 02:42:38;;;;;;;4.47;2.53;;;16.30;99.90;;;;;;5053120;28;20486;-41
2023/08/05 02:45:04;;;;;;;4.38;2.40;;;16.30;99.90;;;;;;5053881;28;20123;-44
2023/08/05 02:47:30;;;;;;;3.47;2.55;;;16.30;99.90;;;;;;5052778;28;20036;-45
2023/08/05 02:49:57;;;;;;;3.75;2.15;;;16.40;99.90;;;;;;5043565;28;20036;-41
2023/08/05 02:52:22;;;;;;;3.40;2.67;;;16.40;99.90;;;;;;5052901;28;20074;-45
2023/08/05 02:54:48;;;;;;;5.57;3.15;;;16.40;99.90;;;;;;5053661;28;20029;-41
2023/08/05 02:57:13;;;;;;;6.28;3.40;;;16.40;99.90;;;;;;5052995;28;20029;-44
2023/08/05 02:59:39;;;;;;;4.72;3.42;;;16.40;99.90;;;;;;5052968;28;20497;-45
2023/08/05 03:02:05;;;;;;;4.25;2.70;;;16.40;99.90;;;;;;5051759;28;20025;-48
2023/08/05 03:04:30;;;;;;;6.35;3.40;;;16.40;99.90;;;;;;5052969;28;20036;-45
2023/08/05 03:06:56;;;;;;;7.40;3.55;;;16.40;99.90;;;;;;5053222;28;20512;-44
2023/08/05 03:09:21;;;;;;;8.07;4.03;;;16.40;99.90;;;;;;5034321;28;20032;-45
2023/08/05 03:11:48;;;;;;;6.22;3.67;;;16.40;99.90;;;;;;5052341;28;20040;-44
2023/08/05 03:14:14;;;;;;;4.55;2.97;;;16.30;99.90;;;;;;5053612;28;20481;-43
2023/08/05 03:16:41;;;;;;;5.28;3.38;;;16.30;99.90;;;;;;5052606;28;20025;-42
2023/08/05 03:19:06;;;;;;;5.97;2.92;;;16.30;99.90;;;;;;5050609;28;20469;-44
2023/08/05 03:21:32;;;;;;;5.22;2.67;;;16.30;99.90;;;;;;5053219;28;20040;-41
2023/08/05 03:23:58;;;;;;;6.10;2.80;;;16.30;99.90;;;;;;5051537;28;20036;-43
2023/08/05 03:26:23;;;;;;;2.58;2.38;;;16.30;99.90;;;;;;5051920;28;20029;-43
2023/08/05 03:28:49;;;;;;;3.33;2.80;;;16.30;99.90;;;;;;5034562;28;20025;-44
2023/08/05 03:31:14;;;;;;;5.15;2.35;;;16.40;99.90;;;;;;5052436;28;20524;-47
2023/08/05 03:33:42;;;;;;;1.63;1.50;;;16.40;99.90;;;;;;5051362;28;20025;-44
2023/08/05 03:36:07;;;;;;;8.80;2.80;;;16.40;99.90;;;;;;5052796;28;20120;-49
2023/08/05 03:38:33;;;;;;;2.17;1.98;;;16.40;99.90;;;;;;5052012;28;20104;-41
2023/08/05 03:41:05;;;;;;;4.93;2.63;;;16.40;99.90;;;;;;5052960;28;20029;-45
2023/08/05 03:43:31;;;;;;;6.03;2.92;;;16.40;99.90;;;;;;5052415;28;20041;-45
2023/08/05 03:45:56;;;;;;;4.45;2.78;;;16.40;99.90;;;;;;5052720;28;20527;-41
2023/08/05 03:48:22;;;;;;;5.72;2.63;;;16.40;99.90;;;;;;5050072;28;20025;-42
2023/08/05 03:50:47;;;;;;;3.55;3.03;;;16.30;99.90;;;;;;5052748;28;20029;-44
2023/08/05 03:53:13;;;;;;;5.05;2.42;;;16.30;99.90;;;;;;5052785;28;20112;-43
2023/08/05 03:55:39;;;;;;;4.50;3.05;;;16.30;99.90;;;;;;5052684;28;20385;-43
2023/08/05 03:58:04;;;;;;;3.83;2.85;;;16.30;99.90;;;;;;5052896;28;20024;-43
2023/08/05 04:00:30;;;;;;;7.43;3.33;;;16.30;99.90;;;;;;5052689;28;20029;-45
2023/08/05 04:02:56;;;;;;;8.38;3.78;;;16.30;99.90;;;;;;5048959;28;20017;-42
2023/08/05 04:05:21;;;;;;;4.68;2.80;;;16.30;99.90;;;;;;5051159;28;20021;-45
2023/08/05 04:07:47;;;;;;;4.22;3.00;;;16.30;99.90;;;;;;5052585;28;20436;-42
2023/08/05 04:10:13;;;;;;;7.88;4.03;;;16.30;99.90;;;;;;5052388;28;20512;-43
2023/08/05 04:12:38;;;;;;;8.57;4.30;;;16.30;99.90;;;;;;5050764;28;20347;-45
2023/08/05 04:15:07;;;;;;;4.35;3.50;;;16.30;99.90;;;;;;5050741;28;20518;-45
2023/08/05 04:17:33;;;;;;;6.82;3.92;;;16.30;99.90;;;;;;5050683;28;20107;-56
2023/08/05 04:20:00;;;;;;;5.00;3.63;;;16.30;99.90;;;;;;5051875;28;20163;-52
2023/08/05 04:22:27;;;;;;;7.50;3.70;;;16.30;99.90;;;;;;5052471;28;20048;-42
2023/08/05 04:24:53;;;;;;;6.13;3.88;;;16.30;99.90;;;;;;5052338;28;20060;-41
2023/08/05 04:27:21;;;;;;;6.85;3.80;;;16.30;99.90;;;;;;5050836;28;20036;-45
2023/08/05 04:29:47;;;;;;;4.28;3.40;;;16.30;99.90;;;;;;5051375;28;20079;-41
2023/08/05 04:32:13;;;;;;;8.85;4.15;;;16.30;99.90;;;;;;5050949;28;20060;-43
2023/08/05 04:34:39;;;;;;;7.75;3.70;;;16.30;99.90;;;;;;5051750;28;20021;-43
2023/08/05 04:37:19;;;;;;;6.18;3.20;;;16.30;99.90;;;;;;5052301;28;20029;-43
2023/08/05 04:39:45;;;;;;;6.10;3.53;;;16.30;99.90;;;;;;5051831;28;20206;-44
2023/08/05 04:42:11;;;;;;;5.35;4.10;;;16.30;99.90;;;;;;5052054;28;20021;-41
2023/08/05 04:44:40;;;;;;;6.65;3.90;;;16.30;99.90;;;;;;5051730;28;20029;-45
2023/08/05 04:47:07;;;;;;;6.53;4.38;;;16.30;99.90;;;;;;5051136;28;20033;-46
2023/08/05 04:49:32;;;;;;;5.20;3.58;;;16.30;99.90;;;;;;5049266;28;20099;-45
2023/08/05 04:51:59;;;;;;;6.57;4.50;;;16.30;99.90;;;;;;5052214;28;20486;-42
2023/08/05 04:54:24;;;;;;;4.75;3.95;;;16.30;99.90;;;;;;5034304;28;20081;-44
2023/08/05 04:56:50;;;;;;;11.15;4.97;;;16.30;99.90;;;;;;5053980;28;20052;-46
2023/08/05 04:59:16;;;;;;;5.05;4.05;;;16.30;99.90;;;;;;5055962;28;20027;-45
2023/08/05 05:01:41;;;;;;;7.43;3.83;;;16.20;99.90;;;;;;5055911;28;20362;-42
2023/08/05 05:04:07;;;;;;;11.38;4.18;;;16.20;99.90;;;;;;5052746;28;20563;-50
2023/08/05 05:06:33;;;;;;;6.38;4.20;;;16.20;99.90;;;;;;5055132;28;20079;-42
2023/08/05 05:08:58;;;;;;;6.15;3.85;;;16.20;99.90;;;;;;5055634;28;20071;-41
2023/08/05 05:11:24;;;;;;;9.70;4.03;;;16.20;99.90;;;;;;5055503;28;20045;-44
2023/08/05 05:13:50;;;;;;;9.40;5.10;;;16.20;99.90;;;;;;5053231;28;20032;-45
2023/08/05 05:16:17;;;;;;;8.25;4.18;;;16.20;99.90;;;;;;5055033;28;20029;-42
2023/08/05 05:18:43;;;;;;;8.73;4.17;;;16.20;99.90;;;;;;5054342;28;20017;-44
2023/08/05 05:21:09;;;;;;;9.82;4.85;;;16.20;99.90;;;;;;5054031;28;20040;-43
2023/08/05 05:23:35;;;;;;;7.40;3.92;;;16.20;99.90;;;;;;5051391;28;20447;-42
2023/08/05 05:26:01;;;;;;;8.05;4.65;;;16.20;99.90;;;;;;5054668;28;20111;-42
2023/08/05 05:28:26;;;;;;;7.32;5.00;;;16.20;99.90;;;;;;5053597;28;20025;-45
2023/08/05 05:30:52;;;;;;;6.57;4.43;;;16.30;99.90;;;;;;5055195;28;20025;-45
2023/08/05 05:33:18;;;;;;;8.93;4.05;;;16.20;99.90;;;;;;5036121;28;20111;-42
2023/08/05 05:35:43;;;;;;;12.20;4.45;;;16.20;99.90;;;;;;5053384;28;20047;-42
2023/08/05 05:38:09;;;;;;;9.93;4.53;;;16.20;99.90;;;;;;5054462;28;20052;-45
2023/08/05 05:40:40;;;;;;;7.88;4.60;;;16.30;99.90;;;;;;5037210;28;20568;-42
2023/08/05 05:43:06;;;;;;;11.48;4.65;;;16.30;99.90;;;;;;5054922;28;20415;-47
2023/08/05 05:45:34;;;;;;;7.35;4.55;;;16.30;99.90;;;;;;5066421;28;20025;-57
2023/08/05 05:48:00;;;;;;;;;;;16.30;99.90;;;;;;5052729;28;20505;-43
2023/08/05 05:50:25;;;;;;;8.63;4.57;;;16.30;99.90;;;;;;5052848;28;19917;-46
2023/08/05 05:52:53;;;;;;;9.90;5.13;;;16.30;99.90;;;;;;5053724;28;20067;-43
2023/08/05 05:55:19;;;;;;;9.98;4.38;;;16.30;99.90;;;;;;5017767;28;20052;-47
2023/08/05 05:57:45;;;;;;;6.25;4.72;;;16.30;99.90;;;;;;5041709;28;20095;-44
2023/08/05 06:00:11;;;;;;;8.05;4.65;;;16.30;99.90;;;;;;5054064;28;20458;-47
2023/08/05 06:02:37;;;;;;;7.05;4.55;;;16.30;99.90;;;;;;5054782;28;20370;-44
2023/08/05 06:05:03;;;;;;;7.32;4.80;;;16.40;99.90;;;;;;5035940;28;20032;-44
2023/08/05 06:07:29;;;;;;;10.65;5.03;;;16.40;99.90;;;;;;5054508;28;20029;-44
2023/08/05 06:09:54;;;;;;;6.15;4.55;;;16.40;99.90;;;;;;5036484;28;20398;-43
2023/08/05 06:12:22;;;;;;;10.68;5.40;;;16.40;99.90;;;;;;5054585;28;20035;-69
2023/08/05 06:14:48;;;;;;;8.65;4.82;;;16.50;99.90;;;;;;5053647;28;20385;-45
2023/08/05 06:17:14;;;;;;;7.70;4.82;;;16.50;99.90;;;;;;5053767;28;20025;-43
2023/08/05 06:19:40;;;;;;;15.25;4.85;;;16.50;99.90;;;;;;5053646;28;20021;-41
2023/08/05 06:22:06;;;;;;;9.52;4.95;;;16.60;99.90;;;;;;5053371;28;20021;-46
2023/08/05 06:24:31;;;;;;;9.23;5.13;;;16.60;99.90;;;;;;5053437;28;20025;-43
2023/08/05 06:26:57;;;;;;;8.88;4.43;;;16.70;99.90;;;;;;5054329;28;20112;-49
2023/08/05 06:29:22;;;;;;;10.73;4.90;;;16.70;99.90;;;;;;5052748;28;20029;-41
2023/08/05 06:31:48;;;;;;;9.45;4.38;;;16.80;99.90;;;;;;5051404;28;20017;-47
2023/08/05 06:34:14;;;;;;;7.68;4.63;;;16.90;99.90;;;;;;5053454;28;20025;-45
2023/08/05 06:36:39;;;;;;;6.78;4.43;;;16.90;99.90;;;;;;5053313;28;20029;-47
2023/08/05 06:39:05;;;;;;;5.93;3.30;;;17.00;99.90;;;;;;5052833;28;20025;-44
2023/08/05 06:41:31;;;;;;;7.50;4.28;;;17.00;99.90;;;;;;5052643;28;20037;-46
2023/08/05 06:43:56;;;;;;;5.90;3.38;;;17.10;99.90;;;;;;5053934;28;20389;-45
2023/08/05 06:46:22;;;;;;;8.57;4.28;;;17.20;99.90;;;;;;5051755;28;20025;-45
2023/08/05 06:48:48;;;;;;;5.85;3.92;;;17.20;99.90;;;;;;5049754;28;20432;-48
2023/08/05 06:51:13;;;;;;;7.63;4.15;;;17.20;99.90;;;;;;5052562;28;20095;-43
2023/08/05 06:53:42;;;;;;;4.32;3.50;;;17.20;99.90;;;;;;5022422;28;20061;-44
2023/08/05 06:56:08;;;;;;;6.10;3.63;;;17.30;99.90;;;;;;5035763;28;20030;-43
2023/08/05 06:58:34;;;;;;;8.82;3.72;;;17.50;99.90;;;;;;5053992;28;20103;-43
2023/08/05 07:00:59;;;;;;;3.78;3.38;;;18.30;99.90;;;;;;5053684;28;20115;-45
2023/08/05 07:03:25;;;;;;;9.10;4.15;;;19.80;99.90;;;;;;5051418;28;20087;-45
2023/08/05 07:05:55;;;;;;;9.52;3.63;;;20.90;99.90;;;;;;5050321;28;20033;-69
2023/08/05 07:08:25;;;;;;;4.90;3.55;;;21.70;99.90;;;;;;5052497;28;20029;-44
2023/08/05 07:10:57;;;;;;;9.68;3.55;;;22.10;99.90;;;;;;5053141;28;20072;-50
2023/08/05 07:13:26;;;;;;;10.77;3.53;;;22.40;99.90;;;;;;5053324;28;20029;-56
2023/08/05 07:16:02;;;;;;;7.85;3.58;;;22.50;99.90;;;;;;5053371;28;20021;-45
2023/08/05 07:18:28;;;;;;;7.53;3.03;;;22.60;99.90;;;;;;5053578;28;20028;-54
2023/08/05 07:20:54;;;;;;;7.85;3.25;;;22.40;99.90;;;;;;5052373;28;20047;-55
2023/08/05 07:23:20;;;;;;;5.43;3.70;;;21.90;99.90;;;;;;5053426;28;20029;-54
2023/08/05 07:25:46;;;;;;;8.93;3.10;;;21.30;99.90;;;;;;5051191;28;20504;-56
2023/08/05 07:28:12;;;;;;;10.63;3.55;;;20.80;99.90;;;;;;5052532;28;20060;-54
2023/08/05 07:30:37;;;;;;;4.82;3.20;;;20.30;99.90;;;;;;5053031;28;20481;-55
2023/08/05 07:33:05;;;;;;;5.10;2.50;;;20.10;99.90;;;;;;5051347;28;20025;-55
2023/08/05 07:35:32;;;;;;;2.95;2.38;;;20.00;99.90;;;;;;5053246;28;20112;-56
2023/08/05 07:37:58;;;;;;;;;;;20.10;99.90;;;;;;5053483;28;20528;-56
2023/08/05 07:40:23;;;;;;;5.05;2.58;;;20.10;99.90;;;;;;5051910;28;19908;-54
2023/08/05 07:42:50;;;;;;;8.55;4.63;;;20.10;99.90;;;;;;5052123;28;20025;-55
2023/08/05 07:45:21;;;;;;;10.35;5.18;;;20.10;99.90;;;;;;5052861;28;20086;-57
2023/08/05 07:47:47;;;;;;;7.70;4.72;;;20.00;99.90;;;;;;5051105;28;20024;-56
2023/08/05 07:50:16;;;;;;;7.63;4.30;;;19.90;99.90;;;;;;5052733;28;20061;-53
2023/08/05 07:52:43;;;;;;;5.53;4.10;;;19.80;99.90;;;;;;5052086;28;20017;-55
2023/08/05 07:55:08;;;;;;;6.53;4.38;;;19.80;99.90;;;;;;5050900;28;20028;-54
2023/08/05 07:57:35;;;;;;;13.48;5.13;;;19.80;99.90;;;;;;5034360;28;20060;-53
2023/08/05 08:00:01;;;;;;;5.32;2.95;;;19.70;99.90;;;;;;5052196;28;20079;-54
2023/08/05 08:02:26;;;;;;;4.82;3.00;;;19.60;99.90;;;;;;5048416;28;20428;-54
2023/08/05 08:04:55;;;;;;;2.95;2.67;;;19.70;99.90;;;;;;5051617;28;20025;-53
2023/08/05 08:07:25;;;;;;;7.05;3.03;;;19.70;99.90;;;;;;5052162;28;20021;-61
2023/08/05 08:09:50;;;;;;;3.15;2.55;;;19.80;99.90;;;;;;5052383;28;20021;-53
2023/08/05 08:12:17;;;;;;;5.40;2.90;;;20.00;99.90;;;;;;5069940;28;20080;-55
2023/08/05 08:14:42;;;;;;;3.10;2.80;;;20.20;99.90;;;;;;5072834;28;20527;-56
2023/08/05 08:17:08;;;;;;;7.80;3.05;;;20.50;99.90;;;;;;5054738;28;20013;-52
2023/08/05 08:19:33;;;;;;;7.03;2.53;;;20.50;99.90;;;;;;5050936;28;20026;-47
2023/08/05 08:22:00;;;;;;;5.18;2.88;;;20.50;99.90;;;;;;5050920;28;20104;-53
2023/08/05 08:24:25;;;;;;;5.13;3.15;;;20.50;99.90;;;;;;5052297;28;20036;-54
2023/08/05 08:26:51;;;;;;;4.68;3.00;;;20.50;99.90;;;;;;5052329;28;20033;-54
2023/08/05 08:29:17;;;;;;;7.60;3.13;;;20.40;99.90;;;;;;5051608;28;20495;-55
2023/08/05 08:31:42;;;;;;;7.38;3.30;;;20.50;99.90;;;;;;5054111;28;20020;-55
2023/08/05 08:34:08;;;;;;;4.15;2.75;;;20.60;99.90;;;;;;5055656;28;20385;-56
2023/08/05 08:36:33;;;;;;;4.65;2.53;;;20.60;99.90;;;;;;5056399;28;20021;-53
2023/08/05 08:38:59;;;;;;;8.63;2.83;;;20.70;99.90;;;;;;5056237;28;20021;-62
2023/08/05 08:41:26;;;;;;;2.97;2.47;;;21.00;99.90;;;;;;5056437;28;20033;-55
2023/08/05 08:43:54;;;;;;;3.22;2.58;;;21.10;99.90;;;;;;5043520;28;20061;-53
2023/08/05 08:46:20;;;;;;;3.88;3.10;;;21.00;99.90;;;;;;5040044;28;20377;-52
2023/08/05 08:48:48;;;;;;;3.67;2.25;;;20.90;99.90;;;;;;5054862;28;20079;-57
2023/08/05 08:51:15;;;;;;;3.67;1.80;;;20.60;99.90;;;;;;5055350;28;20027;-56
2023/08/05 08:53:43;;;;;;;4.07;2.30;;;20.40;99.90;;;;;;5056073;28;20103;-56
2023/08/05 08:56:09;;;;;;;3.42;2.08;;;20.50;99.90;;;;;;5056300;28;20028;-54
2023/08/05 08:58:35;;;;;;;6.53;2.17;;;20.50;99.90;;;;;;5055932;28;20436;-54
2023/08/05 09:01:03;;;;;;;3.05;2.65;;;20.60;99.90;;;;;;5055166;28;20129;-54
2023/08/05 09:03:32;;;;;;;4.93;2.15;;;20.80;99.90;;;;;;5055227;28;20025;-61
2023/08/05 09:05:58;;;;;;;3.80;2.08;;;21.30;99.90;;;;;;5055850;28;20037;-64
2023/08/05 09:08:24;;;;;;;3.03;1.83;;;21.80;99.90;;;;;;5055158;28;20469;-55
2023/08/05 09:10:50;;;;;;;2.28;2.08;;;22.10;99.90;;;;;;5055419;28;20029;-56
2023/08/05 09:13:17;;;;;;;3.10;2.17;;;22.40;99.90;;;;;;5055655;28;20095;-54
2023/08/05 09:15:43;;;;;;;2.53;2.33;;;22.30;99.90;;;;;;5055673;28;20017;-56
2023/08/05 09:18:09;;;;;;;5.90;2.35;;;22.10;99.90;;;;;;5053768;28;20288;-56
2023/08/05 09:20:36;;;;;;;1.90;1.70;;;22.00;99.90;;;;;;5055613;28;20378;-54
2023/08/05 09:23:03;;;;;;;3.00;1.88;;;21.80;99.90;;;;;;5055011;28;20440;-56
2023/08/05 09:25:30;;;;;;;2.60;2.40;;;21.90;99.90;;;;;;5054642;28;20499;-57
2023/08/05 09:27:57;;;;;;;4.47;2.28;;;21.90;99.90;;;;;;5055484;28;20393;-54
2023/08/05 09:30:24;;;;;;;2.97;2.15;;;21.90;99.90;;;;;;5055384;28;20565;-54
2023/08/05 09:32:54;;;;;;;3.45;2.22;;;21.90;99.90;;;;;;5035120;28;20017;-55
2023/08/05 09:35:20;;;;;;;13.77;3.20;;;21.60;99.90;;;;;;5054142;28;20052;-55
2023/08/05 09:37:51;;;;;;;4.40;2.72;;;21.40;99.90;;;;;;5055454;28;20021;-52
2023/08/05 09:40:18;;;;;;;5.93;2.47;;;21.20;99.90;;;;;;5055012;28;20040;-56
2023/08/05 09:42:54;;;;;;;3.37;2.70;;;21.00;99.90;;;;;;5034663;28;20120;-55
2023/08/05 09:45:21;;;;;;;6.13;2.67;;;20.90;99.90;;;;;;5035297;28;20025;-59
2023/08/05 09:47:49;;;;;;;5.32;2.20;;;20.70;99.90;;;;;;5042896;28;20028;-56
2023/08/05 09:50:16;;;;;;;6.63;2.88;;;20.60;99.90;;;;;;5051835;28;20029;-56
2023/08/05 09:52:43;;;;;;;5.28;2.30;;;20.50;99.90;;;;;;5051802;28;20078;-55
2023/08/05 09:55:14;;;;;;;2.75;2.50;;;20.30;99.90;;;;;;5052697;28;20017;-53
2023/08/05 09:57:43;;;;;;;4.60;2.60;;;20.20;99.90;;;;;;5052796;28;20441;-54
2023/08/05 10:00:11;;;;;;;4.22;2.60;;;20.10;99.90;;;;;;5051557;28;20029;-54
2023/08/05 10:02:44;;;;;;;4.50;2.55;;;20.00;99.90;;;;;;5051319;28;20090;-55
2023/08/05 10:05:11;;;;;;;3.30;2.60;;;19.90;99.90;;;;;;5050823;28;20036;-55
2023/08/05 10:07:40;;;;;;;3.33;2.60;;;20.00;99.90;;;;;;5053524;28;20028;-53
2023/08/05 10:10:19;;;;;;;3.67;3.08;;;20.10;99.90;;;;;;5054391;28;20028;-55
2023/08/05 10:13:08;;;;;;;4.93;2.33;;;20.10;99.90;;;;;;5034631;28;20060;-55
2023/08/05 10:15:41;;;;;;;4.20;2.97;;;20.00;99.90;;;;;;5045403;28;20029;-55
2023/08/05 10:18:10;;;;;;;5.82;2.70;;;20.10;99.90;;;;;;5052834;28;20048;-55
2023/08/05 10:20:37;;;;;;;3.38;3.08;;;20.10;99.90;;;;;;5054453;28;20064;-55
2023/08/05 10:23:03;;;;;;;4.53;2.92;;;20.00;99.90;;;;;;5053825;28;20465;-55
2023/08/05 10:25:40;;;;;;;4.57;2.73;;;19.90;99.90;;;;;;5054228;28;20397;-55
2023/08/05 10:28:07;;;;;;;3.80;2.90;;;19.80;99.90;;;;;;5053667;28;20099;-52
2023/08/05 10:30:41;;;;;;;4.30;2.85;;;19.80;99.90;;;;;;5054499;28;20112;-54
2023/08/05 10:33:08;;;;;;;4.55;2.78;;;19.90;99.90;;;;;;5034789;28;20398;-54
2023/08/05 10:35:41;;;;;;;11.10;3.95;;;19.90;99.90;;;;;;5054153;28;20028;-54
2023/08/05 10:38:08;;;;;;;3.90;2.85;;;19.90;99.90;;;;;;5054093;28;20083;-57
2023/08/05 10:40:44;;;;;;;5.15;2.90;;;19.90;99.90;;;;;;5054180;28;20029;-66
2023/08/05 10:43:10;;;;;;;5.70;3.00;;;19.90;99.90;;;;;;5035354;28;20388;-58
2023/08/05 10:45:40;;;;;;;5.72;3.53;;;19.90;99.90;;;;;;5054247;28;20452;-55
2023/08/05 10:48:10;;;;;;;6.28;3.55;;;19.90;99.90;;;;;;5052441;28;20474;-55
2023/08/05 10:50:38;;;;;;;4.43;2.60;;;19.90;99.90;;;;;;5053324;28;20112;-54
2023/08/05 10:53:13;;;;;;;4.25;2.50;;;20.00;99.90;;;;;;5053654;28;20108;-56
2023/08/05 10:55:54;;;;;;;4.00;2.58;;;20.00;99.90;;;;;;5052467;28;20071;-52
2023/08/05 10:58:49;;;;;;;4.60;2.53;;;20.00;99.90;;;;;;5035870;28;20032;-58
2023/08/05 11:01:16;;;;;;;7.72;2.92;;;19.80;99.90;;;;;;5053718;28;20131;-61
2023/08/05 11:03:50;;;;;;;6.75;2.50;;;19.60;99.90;;;;;;5051897;28;20032;-50
2023/08/05 11:06:22;;;;;;;8.15;3.15;;;19.40;99.90;;;;;;5053151;28;20033;-48
2023/08/05 11:08:48;;;;;;;3.17;2.25;;;19.40;99.90;;;;;;5053312;28;20025;-44
2023/08/05 11:11:15;;;;;;;4.60;2.67;;;19.30;99.90;;;;;;5051781;28;20036;-48
2023/08/05 11:13:43;;;;;;;2.33;1.65;;;19.30;99.90;;;;;;5053534;28;20516;-51
2023/08/05 11:16:11;;;;;;;3.67;2.30;;;19.30;99.90;;;;;;5053446;28;20063;-54
2023/08/05 11:18:38;;;;;;;6.15;2.47;;;19.20;99.90;;;;;;5051922;28;20025;-44
2023/08/05 11:21:10;;;;;;;8.68;2.47;;;19.20;99.90;;;;;;5053167;28;20021;-44
2023/08/05 11:23:37;;;;;;;3.60;2.30;;;19.20;99.90;;;;;;5044257;28;20532;-40
2023/08/05 11:26:04;;;;;;;3.65;2.08;;;19.10;99.90;;;;;;5053175;28;20167;-48
2023/08/05 11:28:31;;;;;;;4.40;2.30;;;19.10;99.90;;;;;;5053213;28;20104;-44
2023/08/05 11:30:57;;;;;;;3.85;2.25;;;19.10;99.90;;;;;;5035537;28;20127;-45
2023/08/05 11:33:22;;;;;;;3.10;1.92;;;19.10;99.90;;;;;;5051399;28;20108;-46
2023/08/05 11:35:52;;;;;;;4.70;2.72;;;19.00;99.90;;;;;;5053363;28;20104;-49
2023/08/05 11:38:22;;;;;;;6.95;1.85;;;19.00;99.90;;;;;;5053124;28;20025;-47
2023/08/05 11:40:50;;;;;;;1.83;1.60;;;18.90;99.90;;;;;;5052382;28;20075;-48
2023/08/05 11:43:20;;;;;;;5.30;2.30;;;18.90;99.90;;;;;;5052924;28;20032;-45
2023/08/05 11:45:47;;;;;;;4.10;2.08;;;18.90;99.90;;;;;;5053323;28;20516;-51
2023/08/05 11:48:20;;;;;;;1.88;1.77;;;18.90;99.90;;;;;;5051119;28;20056;-46
2023/08/05 11:50:46;;;;;;;1.80;1.70;;;18.80;99.90;;;;;;5052827;28;20107;-52
2023/08/05 11:53:12;;;;;;;7.03;2.15;;;18.90;99.90;;;;;;5052873;28;20056;-47
2023/08/05 11:55:39;;;;;;;5.15;2.30;;;18.80;99.90;;;;;;5052832;28;20025;-44
2023/08/05 11:58:06;;;;;;;2.05;1.90;;;18.80;99.90;;;;;;5051506;28;20025;-60
2023/08/05 12:00:32;;;;;;;2.88;1.67;;;18.70;99.90;;;;;;5051743;28;20087;-43
2023/08/05 12:02:58;;;;;;;3.28;1.77;;;18.50;99.90;;;;;;5051593;28;20432;-48
2023/08/05 12:05:24;;;;;;;2.08;1.70;;;18.40;99.90;;;;;;5052283;28;20029;-46
2023/08/05 12:07:50;;;;;;;3.50;1.38;;;18.30;99.90;;;;;;5052626;28;20025;-47
2023/08/05 12:10:17;;;;;;;8.93;1.75;;;18.20;99.90;;;;;;5055549;28;20028;-45
2023/08/05 12:12:48;;;;;;;4.03;2.28;;;18.10;99.90;;;;;;5052345;28;20052;-47
2023/08/05 12:15:24;;;;;;;2.25;1.88;;;18.10;99.90;;;;;;5051007;28;20021;-47
2023/08/05 12:17:51;;;;;;;5.35;1.77;;;18.10;99.90;;;;;;5052751;28;20092;-48
2023/08/05 12:20:19;;;;;;;7.15;1.95;;;18.10;99.90;;;;;;5050786;28;20033;-44
2023/08/05 12:22:49;;;;;;;4.63;1.80;;;18.10;99.90;;;;;;5051123;28;20033;-45
2023/08/05 12:25:15;;;;;;;2.78;1.90;;;18.00;99.90;;;;;;5052413;28;20120;-48
2023/08/05 12:27:41;;;;;;;3.92;1.95;;;18.00;99.90;;;;;;5052472;28;20502;-50
2023/08/05 12:30:09;;;;;;;2.63;2.00;;;17.90;99.90;;;;;;5052438;28;20044;-46
2023/08/05 12:32:34;;;;;;;5.78;1.63;;;17.80;99.90;;;;;;5051118;28;20087;-55
2023/08/05 12:35:05;;;;;;;4.10;1.88;;;17.70;99.90;;;;;;5050813;28;20021;-51
2023/08/05 12:37:33;;;;;;;3.25;2.10;;;17.60;99.90;;;;;;5052639;28;20466;-46
2023/08/05 12:40:00;;;;;;;1.70;1.60;;;17.60;99.90;;;;;;5052295;28;20025;-46
2023/08/05 12:42:25;;;;;;;2.20;1.40;;;17.60;99.90;;;;;;5052366;28;20068;-48
2023/08/05 12:44:51;;;;;;;1.90;1.52;;;17.60;99.90;;;;;;5052369;28;20064;-43
2023/08/05 12:47:16;;;;;;;5.85;2.13;;;17.60;99.90;;;;;;5052045;28;20040;-47